Time;durP1;ratioP1;P1;durP2;ratioP2;P2;SDS_P1;SDS_P2;PMS_P1;PMS_P2;Temp;Humidity;BMP_temperature;BMP_pressure;BME280_temperature;BME280_humidity;BME280_pressure;Samples;Min_cycle;Max_cycle;Signal;HPM_P1;HPM_P2
2021/09/09 00:00:15;;;;;;;9.43;8.53;;;16.90;99.90;;;;;;5034882;28;20183;-78
2021/09/09 00:02:41;;;;;;;8.93;8.23;;;16.90;99.90;;;;;;5030454;28;20178;-81
2021/09/09 00:05:08;;;;;;;9.20;8.30;;;16.90;99.90;;;;;;5041468;28;20198;-81
2021/09/09 00:07:33;;;;;;;9.60;8.60;;;16.90;99.90;;;;;;5029706;28;20195;-81
2021/09/09 00:10:00;;;;;;;9.17;8.37;;;16.90;99.90;;;;;;5040823;28;20265;-79
2021/09/09 00:12:26;;;;;;;10.13;9.10;;;16.90;99.90;;;;;;5042038;28;20174;-79
2021/09/09 00:14:52;;;;;;;9.60;8.70;;;16.90;99.90;;;;;;5028893;28;20175;-79
2021/09/09 00:17:18;;;;;;;9.40;8.60;;;16.90;99.90;;;;;;5036099;28;20696;-81
2021/09/09 00:19:44;;;;;;;9.73;8.87;;;16.90;99.90;;;;;;5032611;28;20186;-79
2021/09/09 00:22:09;;;;;;;9.07;8.23;;;16.90;99.90;;;;;;5041715;28;20559;-81
2021/09/09 00:24:35;;;;;;;8.77;7.97;;;16.90;99.90;;;;;;5041821;28;20197;-81
2021/09/09 00:27:01;;;;;;;9.00;8.30;;;16.80;99.90;;;;;;5028474;28;20205;-79
2021/09/09 00:29:26;;;;;;;8.53;7.83;;;16.70;99.90;;;;;;5041388;28;20200;-79
2021/09/09 00:31:52;;;;;;;9.00;8.30;;;16.70;99.90;;;;;;5041031;28;20257;-79
2021/09/09 00:34:18;;;;;;;8.30;7.60;;;16.60;99.90;;;;;;5036303;28;20181;-81
2021/09/09 00:36:43;;;;;;;8.90;8.00;;;16.60;99.90;;;;;;5026908;28;20199;-81
2021/09/09 00:39:09;;;;;;;9.43;8.53;;;16.50;99.90;;;;;;5035784;28;20575;-81
2021/09/09 00:41:35;;;;;;;8.77;7.87;;;16.60;99.90;;;;;;5029613;28;20221;-79
2021/09/09 00:44:01;;;;;;;7.70;7.10;;;16.60;99.90;;;;;;5040994;28;20316;-81
2021/09/09 00:46:27;;;;;;;9.90;8.83;;;16.50;99.90;;;;;;5026387;28;20264;-79
2021/09/09 00:48:53;;;;;;;9.70;8.70;;;16.50;99.90;;;;;;5039125;28;20209;-81
2021/09/09 00:51:19;;;;;;;8.87;8.07;;;16.50;99.90;;;;;;5041203;28;20181;-78
2021/09/09 00:53:45;;;;;;;9.00;8.20;;;16.50;99.90;;;;;;5033739;28;20186;-79
2021/09/09 00:56:12;;;;;;;9.30;8.60;;;16.50;99.90;;;;;;5033671;28;20202;-80
2021/09/09 00:58:42;;;;;;;10.87;9.17;;;16.50;99.90;;;;;;5041398;28;20233;-80
2021/09/09 01:01:09;;;;;;;9.47;8.67;;;16.50;99.90;;;;;;5040724;28;20695;-80
2021/09/09 01:03:35;;;;;;;10.03;9.17;;;16.60;99.90;;;;;;5028884;28;20277;-80
2021/09/09 01:06:01;;;;;;;9.87;8.87;;;16.60;99.90;;;;;;5034792;28;20201;-80
2021/09/09 01:08:26;;;;;;;9.07;8.27;;;16.60;99.90;;;;;;5041556;28;20236;-80
2021/09/09 01:10:52;;;;;;;9.83;9.00;;;16.60;99.90;;;;;;5028085;28;20312;-80
2021/09/09 01:13:18;;;;;;;9.37;8.67;;;16.60;99.90;;;;;;5033094;28;20184;-80
2021/09/09 01:15:44;;;;;;;9.53;8.67;;;16.50;99.90;;;;;;5041058;28;20199;-80
2021/09/09 01:18:12;;;;;;;9.13;8.30;;;16.50;99.90;;;;;;5039924;28;20213;-80
2021/09/09 01:20:38;;;;;;;8.47;7.67;;;16.50;99.90;;;;;;5040061;28;20865;-80
2021/09/09 01:23:05;;;;;;;8.90;8.20;;;16.50;99.90;;;;;;5036654;28;20182;-80
2021/09/09 01:25:31;;;;;;;8.57;7.87;;;16.40;99.90;;;;;;5039059;28;20181;-79
2021/09/09 01:27:57;;;;;;;9.70;8.90;;;16.30;99.90;;;;;;5041584;28;20224;-80
2021/09/09 01:30:22;;;;;;;9.13;8.43;;;16.20;99.90;;;;;;5040092;28;20190;-80
2021/09/09 01:32:48;;;;;;;8.83;8.13;;;16.20;99.90;;;;;;5041385;28;20189;-79
2021/09/09 01:35:14;;;;;;;9.23;8.43;;;16.30;99.90;;;;;;5038618;28;20212;-79
2021/09/09 01:37:39;;;;;;;9.80;8.70;;;16.20;99.90;;;;;;5024105;28;20193;-79
2021/09/09 01:40:06;;;;;;;8.50;7.80;;;16.20;99.90;;;;;;5013266;28;20194;-79
2021/09/09 01:42:31;;;;;;;8.97;8.17;;;16.20;99.90;;;;;;5032352;28;20602;-79
2021/09/09 01:44:57;;;;;;;9.90;8.80;;;16.20;99.90;;;;;;5031896;28;20194;-79
2021/09/09 01:47:23;;;;;;;10.00;8.57;;;16.00;99.90;;;;;;5032476;28;20685;-79
2021/09/09 01:49:48;;;;;;;8.57;7.93;;;16.00;99.90;;;;;;5037919;28;20228;-79
2021/09/09 01:52:14;;;;;;;10.03;9.13;;;16.00;99.90;;;;;;5039878;28;20181;-79
2021/09/09 01:54:40;;;;;;;9.43;8.43;;;16.00;99.90;;;;;;5040370;28;20234;-79
2021/09/09 01:57:06;;;;;;;9.73;8.80;;;15.90;99.90;;;;;;5038958;28;20707;-82
2021/09/09 01:59:32;;;;;;;9.57;8.67;;;16.00;99.90;;;;;;5028249;28;20193;-80
2021/09/09 02:01:57;;;;;;;10.33;9.17;;;16.00;99.90;;;;;;5025523;28;20185;-80
2021/09/09 02:04:23;;;;;;;9.83;9.00;;;16.00;99.90;;;;;;5027779;28;20610;-80
2021/09/09 02:06:49;;;;;;;9.90;9.00;;;16.00;99.90;;;;;;5024748;28;20244;-80
2021/09/09 02:09:14;;;;;;;9.83;9.00;;;16.10;99.90;;;;;;5029654;28;20200;-80
2021/09/09 02:11:40;;;;;;;11.10;8.93;;;16.10;99.90;;;;;;5036490;28;20180;-80
2021/09/09 02:14:06;;;;;;;9.07;8.27;;;16.10;99.90;;;;;;5032618;28;20673;-80
2021/09/09 02:16:31;;;;;;;9.57;8.77;;;16.00;99.90;;;;;;5020590;28;20209;-80
2021/09/09 02:18:57;;;;;;;8.83;8.13;;;16.10;99.90;;;;;;5038069;28;20173;-80
2021/09/09 02:21:23;;;;;;;9.13;8.33;;;16.10;99.90;;;;;;5028768;28;20189;-80
2021/09/09 02:23:49;;;;;;;9.50;8.70;;;16.00;99.90;;;;;;5036853;28;20198;-80
2021/09/09 02:26:14;;;;;;;9.47;8.67;;;16.00;99.90;;;;;;5040228;28;20198;-80
2021/09/09 02:28:40;;;;;;;9.67;8.33;;;15.90;99.90;;;;;;5034368;28;20181;-79
2021/09/09 02:31:06;;;;;;;10.00;9.13;;;16.00;99.90;;;;;;5025286;28;20166;-79
2021/09/09 02:33:32;;;;;;;10.30;9.40;;;16.00;99.90;;;;;;5028970;28;20244;-79
2021/09/09 02:35:57;;;;;;;9.80;8.90;;;16.00;99.90;;;;;;5019433;28;20202;-79
2021/09/09 02:38:23;;;;;;;9.57;8.83;;;16.10;99.90;;;;;;5012863;28;20187;-80
2021/09/09 02:40:49;;;;;;;9.40;8.70;;;16.10;99.90;;;;;;5021571;28;20181;-80
2021/09/09 02:43:14;;;;;;;10.80;9.13;;;16.20;99.90;;;;;;5018809;28;20175;-79
2021/09/09 02:45:40;;;;;;;9.73;8.93;;;16.20;99.90;;;;;;5019535;28;20209;-80
2021/09/09 02:48:05;;;;;;;9.70;8.93;;;16.20;99.90;;;;;;5017972;28;20237;-80
2021/09/09 02:50:32;;;;;;;9.90;9.10;;;16.20;99.90;;;;;;5018349;28;20257;-80
2021/09/09 02:52:58;;;;;;;9.93;9.03;;;16.20;99.90;;;;;;5017089;28;20182;-79
2021/09/09 02:55:23;;;;;;;10.00;9.10;;;16.30;99.90;;;;;;5018158;28;20175;-80
2021/09/09 02:57:49;;;;;;;10.13;9.23;;;16.30;99.90;;;;;;5022172;28;20223;-79
2021/09/09 03:00:15;;;;;;;10.90;9.73;;;16.30;99.90;;;;;;5019066;28;20197;-79
2021/09/09 03:02:41;;;;;;;10.00;9.20;;;16.30;99.90;;;;;;5019037;28;20187;-79
2021/09/09 03:05:08;;;;;;;11.13;10.03;;;16.40;99.90;;;;;;5022432;28;20218;-79
2021/09/09 03:07:34;;;;;;;10.40;9.57;;;16.40;99.90;;;;;;5021637;28;20203;-79
2021/09/09 03:10:00;;;;;;;10.33;9.40;;;16.40;99.90;;;;;;5026835;28;20178;-79
2021/09/09 03:12:26;;;;;;;10.43;9.53;;;16.40;99.90;;;;;;5021055;28;20691;-80
2021/09/09 03:14:52;;;;;;;10.33;9.33;;;16.40;99.90;;;;;;5024586;28;20229;-79
2021/09/09 03:17:17;;;;;;;10.47;9.37;;;16.40;99.90;;;;;;5022537;28;20282;-79
2021/09/09 03:19:43;;;;;;;10.60;9.60;;;16.40;99.90;;;;;;5021826;28;20186;-79
2021/09/09 03:22:08;;;;;;;11.20;10.03;;;16.40;99.90;;;;;;5020294;28;20178;-79
2021/09/09 03:24:34;;;;;;;10.37;9.37;;;16.40;99.90;;;;;;5021171;28;20202;-79
2021/09/09 03:27:00;;;;;;;10.40;9.60;;;16.40;99.90;;;;;;5025149;28;20187;-79
2021/09/09 03:29:25;;;;;;;10.03;9.13;;;16.40;99.90;;;;;;5021903;28;20172;-79
2021/09/09 03:31:51;;;;;;;10.97;9.97;;;16.40;99.90;;;;;;5022509;28;20527;-79
2021/09/09 03:34:17;;;;;;;9.77;9.07;;;16.40;99.90;;;;;;5022482;28;20591;-79
2021/09/09 03:36:42;;;;;;;13.10;10.10;;;16.40;99.90;;;;;;5022822;28;20195;-79
2021/09/09 03:39:08;;;;;;;10.80;9.70;;;16.40;99.90;;;;;;5023848;28;20261;-79
2021/09/09 03:41:34;;;;;;;9.80;9.00;;;16.40;99.90;;;;;;5022685;28;20201;-79
2021/09/09 03:44:00;;;;;;;11.00;9.90;;;16.30;99.90;;;;;;5021545;28;20198;-80
2021/09/09 03:46:25;;;;;;;9.67;8.77;;;16.30;99.90;;;;;;5020810;28;20218;-79
2021/09/09 03:48:51;;;;;;;10.13;9.27;;;16.30;99.90;;;;;;5020920;28;20181;-79
2021/09/09 03:51:16;;;;;;;10.10;9.10;;;16.40;99.90;;;;;;5019239;28;20221;-79
2021/09/09 03:53:42;;;;;;;10.40;9.40;;;16.30;99.90;;;;;;5035525;28;20178;-78
2021/09/09 03:56:08;;;;;;;10.43;9.40;;;16.20;99.90;;;;;;5038526;28;20251;-77
2021/09/09 03:58:33;;;;;;;10.03;9.33;;;16.10;99.90;;;;;;5038539;28;20194;-79
2021/09/09 04:00:59;;;;;;;9.60;8.70;;;16.10;99.90;;;;;;5030814;28;20202;-79
2021/09/09 04:03:25;;;;;;;10.07;9.07;;;16.10;99.90;;;;;;5004597;28;20199;-79
2021/09/09 04:05:50;;;;;;;10.27;9.20;;;16.10;99.90;;;;;;5023892;28;20297;-79
2021/09/09 04:08:16;;;;;;;10.10;9.20;;;16.20;99.90;;;;;;5028353;28;20183;-79
2021/09/09 04:10:42;;;;;;;10.43;9.63;;;16.20;99.90;;;;;;5040136;28;20181;-79
2021/09/09 04:13:07;;;;;;;9.77;8.93;;;16.20;99.90;;;;;;5039642;28;20236;-78
2021/09/09 04:15:33;;;;;;;10.27;9.47;;;16.20;99.90;;;;;;5038340;28;20243;-79
2021/09/09 04:17:59;;;;;;;11.53;9.90;;;16.20;99.90;;;;;;5025227;28;20189;-79
2021/09/09 04:20:24;;;;;;;10.60;9.67;;;16.20;99.90;;;;;;5040895;28;20186;-79
2021/09/09 04:22:50;;;;;;;10.20;9.40;;;16.20;99.90;;;;;;5040666;28;20198;-79
2021/09/09 04:25:16;;;;;;;10.37;9.53;;;16.20;99.90;;;;;;5032002;28;20230;-79
2021/09/09 04:27:41;;;;;;;9.90;9.10;;;16.20;99.90;;;;;;5040017;28;20173;-79
2021/09/09 04:30:08;;;;;;;9.87;8.90;;;16.10;99.90;;;;;;5027771;28;20197;-79
2021/09/09 04:32:33;;;;;;;10.47;9.57;;;16.00;99.90;;;;;;5039046;28;20184;-79
2021/09/09 04:34:59;;;;;;;10.50;9.60;;;15.90;99.90;;;;;;5040649;28;20235;-79
2021/09/09 04:37:25;;;;;;;11.33;10.33;;;15.90;99.90;;;;;;5039709;28;20201;-79
2021/09/09 04:39:51;;;;;;;11.37;9.93;;;15.90;99.90;;;;;;5027595;28;20182;-79
2021/09/09 04:42:16;;;;;;;10.83;9.97;;;15.90;99.90;;;;;;5038956;28;20183;-79
2021/09/09 04:44:42;;;;;;;10.27;9.40;;;15.90;99.90;;;;;;5040836;28;20262;-79
2021/09/09 04:47:08;;;;;;;9.70;8.90;;;16.00;99.90;;;;;;5038944;28;20285;-79
2021/09/09 04:49:33;;;;;;;12.10;9.60;;;16.00;99.90;;;;;;5039940;28;20648;-79
2021/09/09 04:51:59;;;;;;;11.60;10.50;;;16.00;99.90;;;;;;5026484;28;20187;-79
2021/09/09 04:54:24;;;;;;;11.73;9.87;;;16.00;99.90;;;;;;5024363;28;20187;-79
2021/09/09 04:56:50;;;;;;;10.07;9.27;;;15.90;99.90;;;;;;5018716;28;20293;-79
2021/09/09 04:59:16;;;;;;;10.20;9.23;;;15.90;99.90;;;;;;5020705;28;20181;-79
2021/09/09 05:01:41;;;;;;;9.80;9.00;;;15.90;99.90;;;;;;5019171;28;20205;-79
2021/09/09 05:04:07;;;;;;;10.67;9.53;;;15.90;99.90;;;;;;5022741;28;20285;-79
2021/09/09 05:06:33;;;;;;;10.60;9.60;;;15.80;99.90;;;;;;5040521;28;20254;-79
2021/09/09 05:08:58;;;;;;;10.90;9.90;;;15.80;99.90;;;;;;5017371;28;20315;-79
2021/09/09 05:11:24;;;;;;;10.57;9.63;;;15.90;99.90;;;;;;5025496;28;20170;-79
2021/09/09 05:13:50;;;;;;;10.90;9.90;;;15.80;99.90;;;;;;5039993;28;20219;-79
2021/09/09 05:16:15;;;;;;;10.93;9.93;;;15.90;99.90;;;;;;5040196;28;20203;-79
2021/09/09 05:18:41;;;;;;;13.73;10.03;;;15.80;99.90;;;;;;5030307;28;20513;-79
2021/09/09 05:21:06;;;;;;;10.13;9.27;;;15.90;99.90;;;;;;5022666;28;20189;-79
2021/09/09 05:23:32;;;;;;;11.30;10.20;;;15.90;99.90;;;;;;5036335;28;20245;-79
2021/09/09 05:25:58;;;;;;;10.67;9.77;;;15.90;99.90;;;;;;5032804;28;20566;-79
2021/09/09 05:28:23;;;;;;;10.67;9.77;;;15.90;99.90;;;;;;5038251;28;20179;-79
2021/09/09 05:30:49;;;;;;;11.43;10.40;;;15.90;99.90;;;;;;5022932;28;20179;-79
2021/09/09 05:33:15;;;;;;;10.37;9.47;;;15.90;99.90;;;;;;5018678;28;20183;-79
2021/09/09 05:35:41;;;;;;;11.50;10.60;;;15.90;99.90;;;;;;5018306;28;20225;-79
2021/09/09 05:38:07;;;;;;;11.90;10.40;;;16.00;99.90;;;;;;5023839;28;20240;-79
2021/09/09 05:40:33;;;;;;;10.33;9.43;;;15.90;99.90;;;;;;5011578;28;20274;-79
2021/09/09 05:42:59;;;;;;;11.57;10.57;;;15.90;99.90;;;;;;5002380;28;20230;-79
2021/09/09 05:45:24;;;;;;;10.77;9.87;;;15.80;99.90;;;;;;5023583;28;20214;-79
2021/09/09 05:47:50;;;;;;;11.33;10.30;;;15.60;99.90;;;;;;5024341;28;20188;-79
2021/09/09 05:50:17;;;;;;;12.87;11.60;;;15.50;99.90;;;;;;5017620;28;20190;-79
2021/09/09 05:52:44;;;;;;;11.83;10.67;;;15.50;99.90;;;;;;5032408;28;20656;-79
2021/09/09 05:55:10;;;;;;;12.60;11.40;;;15.50;99.90;;;;;;5039409;28;20269;-79
2021/09/09 05:57:35;;;;;;;11.47;10.57;;;15.60;99.90;;;;;;5039130;28;20239;-79
2021/09/09 06:00:01;;;;;;;13.30;11.63;;;15.60;99.90;;;;;;5027147;28;20216;-79
2021/09/09 06:02:28;;;;;;;13.07;11.97;;;15.70;99.90;;;;;;5030957;28;20189;-79
2021/09/09 06:04:55;;;;;;;12.30;11.13;;;15.70;99.90;;;;;;5027604;28;20202;-79
2021/09/09 06:07:21;;;;;;;13.07;11.83;;;15.70;99.90;;;;;;5018602;28;20284;-80
2021/09/09 06:09:47;;;;;;;12.87;11.70;;;15.80;99.90;;;;;;5019481;28;20179;-80
2021/09/09 06:12:13;;;;;;;12.63;11.50;;;15.70;99.90;;;;;;5030538;28;20185;-80
2021/09/09 06:14:38;;;;;;;13.00;11.30;;;15.80;99.90;;;;;;5019671;28;20579;-80
2021/09/09 06:17:05;;;;;;;12.80;11.73;;;15.90;99.90;;;;;;5021171;28;20239;-80
2021/09/09 06:19:31;;;;;;;13.20;11.93;;;15.90;99.90;;;;;;5021322;28;20217;-80
2021/09/09 06:21:58;;;;;;;13.23;12.10;;;15.90;99.90;;;;;;5019545;28;20650;-80
2021/09/09 06:24:24;;;;;;;13.27;11.90;;;16.00;99.90;;;;;;5019828;28;20225;-80
2021/09/09 06:26:49;;;;;;;12.30;11.17;;;16.00;99.90;;;;;;5022264;28;20191;-80
2021/09/09 06:29:15;;;;;;;12.37;10.60;;;16.00;99.90;;;;;;5022029;28;20183;-80
2021/09/09 06:31:41;;;;;;;12.00;10.90;;;16.10;99.90;;;;;;5023095;28;20177;-79
2021/09/09 06:34:06;;;;;;;13.33;11.93;;;16.10;99.90;;;;;;5021312;28;20209;-80
2021/09/09 06:36:32;;;;;;;17.17;13.60;;;16.20;99.90;;;;;;5025932;28;20190;-80
2021/09/09 06:38:59;;;;;;;12.17;11.00;;;16.20;99.90;;;;;;5039237;28;20209;-80
2021/09/09 06:41:25;;;;;;;13.40;12.30;;;16.20;99.90;;;;;;5037265;28;20382;-79
2021/09/09 06:43:50;;;;;;;13.77;12.47;;;16.30;99.90;;;;;;5027084;28;20221;-82
2021/09/09 06:46:16;;;;;;;13.23;11.90;;;16.40;99.90;;;;;;5010585;28;20296;-82
2021/09/09 06:48:42;;;;;;;18.27;15.17;;;16.50;99.90;;;;;;5034398;28;20179;-83
2021/09/09 06:51:07;;;;;;;18.87;13.93;;;16.40;99.90;;;;;;5039654;28;20177;-83
2021/09/09 06:53:33;;;;;;;15.13;13.07;;;16.50;99.90;;;;;;5041339;28;20304;-82
2021/09/09 06:55:59;;;;;;;13.70;12.40;;;16.60;99.90;;;;;;5039937;28;20197;-83
2021/09/09 06:58:24;;;;;;;13.93;12.57;;;16.80;99.90;;;;;;5029802;28;20168;-83
2021/09/09 07:00:50;;;;;;;17.00;13.07;;;16.90;99.90;;;;;;5038693;28;20687;-83
2021/09/09 07:03:17;;;;;;;16.40;12.97;;;16.90;99.90;;;;;;5039505;28;20186;-83
2021/09/09 07:05:43;;;;;;;15.33;13.10;;;17.00;99.90;;;;;;5040731;28;20205;-83
2021/09/09 07:08:08;;;;;;;14.43;12.93;;;17.00;99.90;;;;;;5040674;28;20240;-83
2021/09/09 07:10:34;;;;;;;13.70;11.97;;;17.10;99.90;;;;;;5038879;28;20667;-83
2021/09/09 07:13:00;;;;;;;13.63;12.10;;;17.10;99.90;;;;;;5041019;28;20182;-83
2021/09/09 07:15:25;;;;;;;17.50;13.60;;;17.10;99.90;;;;;;5041472;28;20232;-82
2021/09/09 07:17:51;;;;;;;14.90;13.37;;;17.20;99.90;;;;;;5041303;28;20170;-83
2021/09/09 07:20:17;;;;;;;14.53;12.90;;;17.30;99.90;;;;;;5041139;28;20185;-83
2021/09/09 07:22:42;;;;;;;15.33;12.97;;;17.40;99.90;;;;;;5041606;28;20177;-83
2021/09/09 07:25:09;;;;;;;14.37;12.70;;;17.60;99.90;;;;;;5031200;28;20700;-83
2021/09/09 07:27:35;;;;;;;17.70;12.67;;;17.70;99.90;;;;;;5041710;28;20247;-83
2021/09/09 07:30:02;;;;;;;14.63;12.60;;;17.80;99.90;;;;;;5040347;28;20177;-83
2021/09/09 07:32:27;;;;;;;12.93;11.67;;;17.90;99.90;;;;;;5039579;28;20540;-82
2021/09/09 07:34:53;;;;;;;12.77;11.57;;;18.00;99.90;;;;;;5028768;28;20183;-83
2021/09/09 07:37:19;;;;;;;13.73;11.17;;;18.10;99.90;;;;;;5040197;28;20199;-83
2021/09/09 07:39:44;;;;;;;13.20;11.87;;;18.10;99.90;;;;;;5038982;28;20175;-83
2021/09/09 07:42:10;;;;;;;12.57;11.27;;;18.20;99.90;;;;;;5025979;28;20182;-83
2021/09/09 07:44:36;;;;;;;11.60;10.50;;;18.20;99.90;;;;;;5039395;28;20201;-84
2021/09/09 07:47:02;;;;;;;11.77;10.77;;;18.10;99.90;;;;;;5040375;28;20249;-87
2021/09/09 07:49:28;;;;;;;12.60;11.30;;;18.10;99.90;;;;;;5045018;28;20205;-86
2021/09/09 07:51:54;;;;;;;14.27;10.73;;;18.10;99.90;;;;;;5043164;28;20174;-85
2021/09/09 07:54:20;;;;;;;11.63;10.63;;;18.10;99.90;;;;;;5040044;28;20206;-85
2021/09/09 07:56:49;;;;;;;11.43;10.33;;;18.10;99.90;;;;;;5041518;28;20225;-85
2021/09/09 07:59:16;;;;;;;17.03;11.50;;;18.20;99.90;;;;;;5040810;28;20214;-85
2021/09/09 08:01:44;;;;;;;11.47;10.27;;;18.40;99.90;;;;;;5042698;28;20660;-85
2021/09/09 08:04:15;;;;;;;11.23;10.23;;;18.50;99.90;;;;;;5040385;28;20687;-84
2021/09/09 08:06:42;;;;;;;11.37;10.20;;;18.50;99.90;;;;;;5041851;28;20187;-85
2021/09/09 08:09:08;;;;;;;11.07;10.10;;;18.60;99.90;;;;;;5041769;28;20185;-85
2021/09/09 08:11:34;;;;;;;10.37;9.47;;;18.60;99.90;;;;;;5041292;28;20257;-85
2021/09/09 08:13:59;;;;;;;8.43;7.63;;;18.70;99.90;;;;;;5042661;28;20237;-85
2021/09/09 08:16:25;;;;;;;8.80;8.10;;;18.80;99.90;;;;;;5042398;28;20217;-85
2021/09/09 08:18:51;;;;;;;9.30;8.40;;;18.90;99.90;;;;;;5042843;28;20244;-84
2021/09/09 08:21:16;;;;;;;9.43;8.63;;;19.00;99.90;;;;;;5042394;28;20261;-85
2021/09/09 08:23:42;;;;;;;8.57;7.87;;;19.00;99.90;;;;;;5041179;28;20258;-85
2021/09/09 08:26:09;;;;;;;9.60;8.80;;;19.10;99.90;;;;;;5042810;28;20221;-85
2021/09/09 08:28:35;;;;;;;9.13;8.27;;;19.20;99.90;;;;;;5039808;28;20170;-83
2021/09/09 08:31:00;;;;;;;8.77;8.07;;;19.20;99.90;;;;;;5032774;28;20611;-85
2021/09/09 08:33:26;;;;;;;8.90;8.20;;;19.20;99.90;;;;;;5042486;28;20584;-85
2021/09/09 08:35:52;;;;;;;8.97;8.10;;;19.40;99.90;;;;;;5041050;28;20225;-85
2021/09/09 08:38:17;;;;;;;7.97;7.37;;;19.40;99.90;;;;;;5042635;28;20549;-85
2021/09/09 08:40:44;;;;;;;8.67;7.93;;;19.40;99.90;;;;;;5028689;28;20528;-85
2021/09/09 08:43:12;;;;;;;8.37;7.53;;;19.60;99.90;;;;;;5043200;28;20190;-85
2021/09/09 08:45:37;;;;;;;10.53;7.50;;;19.60;99.90;;;;;;5039536;28;20210;-85
2021/09/09 08:48:04;;;;;;;8.20;7.40;;;19.70;99.90;;;;;;5031970;28;20656;-85
2021/09/09 08:50:32;;;;;;;8.33;7.53;;;19.80;99.90;;;;;;5041848;28;20182;-85
2021/09/09 08:53:01;;;;;;;8.33;7.53;;;19.80;99.90;;;;;;5031444;28;20214;-85
2021/09/09 08:55:27;;;;;;;8.10;7.50;;;19.90;99.90;;;;;;5014185;28;20180;-85
2021/09/09 08:57:56;;;;;;;8.00;7.23;;;20.00;99.90;;;;;;5028247;28;20187;-85
2021/09/09 09:00:22;;;;;;;7.37;6.80;;;20.00;99.90;;;;;;5030849;28;20650;-86
2021/09/09 09:02:53;;;;;;;10.50;7.97;;;20.10;99.90;;;;;;5044040;28;20183;-85
2021/09/09 09:08:51;;;;;;;8.07;7.30;;;20.30;99.90;;;;;;5042680;28;20725;-85
2021/09/09 09:11:39;;;;;;;8.50;7.70;;;20.30;99.90;;;;;;5037467;28;20273;-85
2021/09/09 09:14:10;;;;;;;8.60;7.87;;;20.40;99.90;;;;;;5042935;28;20231;-86
2021/09/09 09:16:41;;;;;;;7.60;7.00;;;20.50;99.90;;;;;;5030936;28;20266;-86
2021/09/09 09:19:10;;;;;;;8.63;7.87;;;20.50;99.90;;;;;;5028186;28;20717;-84
2021/09/09 09:21:41;;;;;;;9.43;8.43;;;20.50;99.90;;;;;;5042922;28;20721;-84
2021/09/09 09:24:07;;;;;;;10.50;7.60;;;20.60;99.90;;;;;;5040994;28;20210;-85
2021/09/09 09:26:33;;;;;;;8.13;7.43;;;20.70;99.90;;;;;;5041174;28;20194;-84
2021/09/09 09:29:00;;;;;;;7.67;7.07;;;20.70;99.90;;;;;;5042301;28;20182;-84
2021/09/09 09:31:30;;;;;;;7.70;7.00;;;20.90;99.90;;;;;;5042679;28;20182;-85
2021/09/09 09:33:59;;;;;;;8.40;7.60;;;20.90;99.90;;;;;;5025114;28;20225;-84
2021/09/09 09:36:29;;;;;;;8.20;7.50;;;21.00;99.90;;;;;;5037058;28;20284;-84
2021/09/09 09:39:04;;;;;;;6.97;6.47;;;21.00;99.90;;;;;;5042692;28;20641;-84
2021/09/09 09:41:30;;;;;;;6.97;6.27;;;21.10;99.90;;;;;;5042310;28;20644;-84
2021/09/09 09:43:59;;;;;;;7.00;6.40;;;21.20;99.90;;;;;;5042134;28;20265;-84
2021/09/09 09:46:39;;;;;;;8.40;6.10;;;21.20;99.90;;;;;;5041914;28;20210;-84
2021/09/09 09:49:21;;;;;;;6.07;5.57;;;21.30;99.90;;;;;;5031010;28;20178;-84
2021/09/09 09:51:51;;;;;;;7.90;6.47;;;21.30;99.90;;;;;;5035300;28;20178;-83
2021/09/09 09:54:18;;;;;;;6.10;5.70;;;21.40;99.90;;;;;;5042420;28;20182;-84
2021/09/09 09:56:46;;;;;;;6.37;5.73;;;21.50;99.90;;;;;;5041966;28;20205;-84
2021/09/09 09:59:12;;;;;;;5.90;5.50;;;21.50;99.90;;;;;;5042173;28;20182;-84
2021/09/09 10:01:38;;;;;;;6.23;5.63;;;21.60;99.90;;;;;;5041349;28;20194;-84
2021/09/09 10:04:12;;;;;;;6.40;5.90;;;21.70;99.90;;;;;;5040179;28;20226;-85
2021/09/09 10:06:37;;;;;;;6.07;5.53;;;21.80;99.90;;;;;;5040803;28;20203;-85
2021/09/09 10:09:06;;;;;;;6.37;5.83;;;21.80;99.90;;;;;;5040717;28;20246;-85
2021/09/09 10:11:32;;;;;;;6.10;5.43;;;22.00;99.90;;;;;;5042250;28;20175;-84
2021/09/09 10:14:01;;;;;;;5.63;5.23;;;22.00;99.90;;;;;;5039451;28;20183;-85
2021/09/09 10:16:32;;;;;;;5.87;4.80;;;22.00;99.90;;;;;;5031287;28;20201;-84
2021/09/09 10:18:58;;;;;;;7.27;5.30;;;22.10;99.90;;;;;;5040873;28;20274;-85
2021/09/09 10:21:44;;;;;;;6.10;5.50;;;22.20;99.90;;;;;;5040031;28;20206;-85
2021/09/09 10:24:18;;;;;;;5.87;5.33;;;22.20;99.90;;;;;;5041174;28;20205;-84
2021/09/09 10:26:48;;;;;;;5.80;5.40;;;22.20;99.90;;;;;;5041316;28;20186;-84
2021/09/09 10:29:53;;;;;;;6.03;5.53;;;22.20;99.90;;;;;;5039866;28;20205;-84
2021/09/09 10:32:31;;;;;;;5.90;5.40;;;22.30;99.90;;;;;;5012445;28;20212;-84
2021/09/09 10:35:15;;;;;;;6.07;5.30;;;22.30;99.90;;;;;;5034379;28;20186;-85
2021/09/09 10:37:48;;;;;;;5.27;4.87;;;22.40;99.90;;;;;;5025377;28;20242;-83
2021/09/09 10:40:33;;;;;;;5.50;4.70;;;22.30;99.90;;;;;;5041056;28;20662;-84
2021/09/09 10:43:05;;;;;;;5.63;4.73;;;22.30;99.90;;;;;;5040603;28;20645;-85
2021/09/09 10:45:34;;;;;;;5.77;5.27;;;22.40;99.90;;;;;;5041902;28;20222;-84
2021/09/09 10:48:01;;;;;;;6.83;5.30;;;22.50;99.90;;;;;;5033434;28;20266;-84
2021/09/09 10:50:27;;;;;;;7.73;4.83;;;22.50;99.90;;;;;;5041021;28;20695;-85
2021/09/09 10:53:08;;;;;;;5.90;5.43;;;22.50;99.90;;;;;;5032226;28;20266;-85
2021/09/09 10:55:40;;;;;;;6.00;5.50;;;22.50;99.90;;;;;;5019260;28;20178;-84
2021/09/09 10:58:20;;;;;;;7.80;5.00;;;22.60;99.90;;;;;;5041805;28;20554;-85
2021/09/09 11:00:56;;;;;;;5.13;4.73;;;22.60;99.90;;;;;;5041208;28;20182;-85
2021/09/09 11:03:46;;;;;;;5.77;5.27;;;22.60;99.90;;;;;;5041995;28;20174;-85
2021/09/09 11:06:16;;;;;;;6.80;5.17;;;22.60;99.90;;;;;;5040108;28;20202;-85
2021/09/09 11:08:45;;;;;;;6.17;5.23;;;22.60;99.90;;;;;;5040996;28;20185;-84
2021/09/09 11:11:15;;;;;;;8.73;5.77;;;22.70;99.90;;;;;;5041758;28;20190;-84
2021/09/09 11:13:41;;;;;;;6.13;5.53;;;22.70;99.90;;;;;;5041325;28;20179;-84
2021/09/09 11:16:26;;;;;;;5.70;5.20;;;22.70;99.90;;;;;;5036148;28;20229;-84
2021/09/09 11:18:52;;;;;;;6.33;5.77;;;22.70;99.90;;;;;;5036196;28;20174;-84
2021/09/09 11:21:23;;;;;;;5.47;5.07;;;22.70;99.90;;;;;;5039797;28;20179;-84
2021/09/09 11:23:55;;;;;;;5.80;5.30;;;22.70;99.90;;;;;;5042555;28;20232;-84
2021/09/09 11:26:22;;;;;;;5.50;5.10;;;22.70;99.90;;;;;;5018471;28;20696;-84
2021/09/09 11:28:49;;;;;;;7.47;5.80;;;22.70;99.90;;;;;;5031577;28;20266;-84
2021/09/09 11:31:18;;;;;;;5.87;5.37;;;22.70;99.90;;;;;;5043578;28;20233;-84
2021/09/09 11:33:53;;;;;;;6.87;5.80;;;22.80;99.90;;;;;;5044982;28;20171;-84
2021/09/09 11:36:22;;;;;;;7.90;5.70;;;22.80;99.90;;;;;;5043965;28;20285;-84
2021/09/09 11:38:48;;;;;;;6.67;5.67;;;22.80;99.90;;;;;;5044763;28;20182;-84
2021/09/09 11:41:17;;;;;;;8.00;5.97;;;22.80;99.90;;;;;;5044548;28;20182;-84
2021/09/09 11:43:55;;;;;;;5.83;5.33;;;22.80;99.90;;;;;;5044274;28;20181;-84
2021/09/09 11:46:28;;;;;;;6.43;5.83;;;22.80;99.90;;;;;;5044596;28;20206;-84
2021/09/09 11:48:59;;;;;;;6.07;5.57;;;22.80;99.90;;;;;;5025725;28;20183;-84
2021/09/09 11:51:36;;;;;;;6.87;6.23;;;22.90;99.90;;;;;;5025232;28;20183;-85
2021/09/09 11:54:04;;;;;;;6.53;6.03;;;22.80;99.90;;;;;;5044584;28;20178;-84
2021/09/09 11:56:29;;;;;;;6.97;6.37;;;22.80;99.90;;;;;;5043887;28;20194;-85
2021/09/09 11:59:01;;;;;;;7.13;6.53;;;22.90;99.90;;;;;;5040858;28;20193;-85
2021/09/09 12:01:29;;;;;;;6.33;5.83;;;22.90;99.90;;;;;;5042473;28;20207;-85
2021/09/09 12:03:56;;;;;;;12.63;6.43;;;22.90;99.90;;;;;;5030210;28;20201;-85
2021/09/09 12:06:22;;;;;;;7.20;6.63;;;22.90;99.90;;;;;;5043938;28;20221;-83
2021/09/09 12:08:49;;;;;;;6.87;6.27;;;22.90;99.90;;;;;;5042597;28;20637;-85
2021/09/09 12:11:16;;;;;;;7.37;6.67;;;22.80;99.90;;;;;;5044686;28;20175;-85
2021/09/09 12:13:44;;;;;;;7.77;6.67;;;22.90;99.90;;;;;;5044472;28;20175;-84
2021/09/09 12:16:17;;;;;;;6.83;6.33;;;23.00;99.90;;;;;;5044492;28;20182;-85
2021/09/09 12:18:44;;;;;;;9.33;6.73;;;23.00;99.90;;;;;;5044818;28;20242;-85
2021/09/09 12:21:12;;;;;;;7.23;6.63;;;22.90;99.90;;;;;;5043619;28;20603;-85
2021/09/09 12:23:38;;;;;;;7.63;6.00;;;23.00;99.90;;;;;;5044286;28;20599;-85
2021/09/09 12:26:17;;;;;;;6.63;6.03;;;23.00;99.90;;;;;;5043078;28;20194;-84
2021/09/09 12:28:44;;;;;;;6.97;6.33;;;23.10;99.90;;;;;;5042761;28;20664;-85
2021/09/09 12:31:10;;;;;;;6.90;6.33;;;23.10;99.90;;;;;;5045015;28;20234;-85
2021/09/09 12:33:39;;;;;;;8.23;6.10;;;23.10;99.90;;;;;;5044269;28;20209;-85
2021/09/09 12:36:12;;;;;;;6.70;6.10;;;23.10;99.90;;;;;;5043097;28;20190;-84
2021/09/09 12:38:44;;;;;;;9.33;5.70;;;23.20;99.90;;;;;;5043990;28;20182;-85
2021/09/09 12:41:26;;;;;;;7.17;5.53;;;23.10;99.90;;;;;;5043856;28;20186;-85
2021/09/09 12:43:59;;;;;;;5.73;5.10;;;23.10;99.90;;;;;;5041690;28;20288;-85